createdAt,value
2022-11-18T00:00:46.609Z,152
2022-11-18T00:02:48.452Z,152
2022-11-18T00:04:49.566Z,152
2022-11-18T00:06:51.525Z,152
2022-11-18T00:08:52.994Z,152
2022-11-18T00:10:54.228Z,152
2022-11-18T00:12:56.193Z,152
2022-11-18T00:16:58.711Z,152
2022-11-18T00:18:59.772Z,152
2022-11-18T00:21:01.232Z,152
2022-11-18T00:23:02.955Z,152
2022-11-18T00:27:06.324Z,152
2022-11-18T00:29:07.438Z,152
2022-11-18T00:31:08.631Z,152
2022-11-18T00:33:09.950Z,152
2022-11-18T00:37:12.311Z,152
2022-11-18T00:39:13.803Z,152
2022-11-18T00:41:15.033Z,152
2022-11-18T00:43:16.478Z,152
2022-11-18T00:47:19.888Z,152
2022-11-18T00:49:21.005Z,238
2022-11-18T00:53:23.714Z,238
2022-11-18T00:55:25.078Z,238
2022-11-18T00:57:26.055Z,238
2022-11-18T00:59:27.096Z,238
2022-11-18T01:03:29.978Z,238
2022-11-18T01:05:31.324Z,238
2022-11-18T01:07:32.457Z,238
2022-11-18T01:09:34.250Z,238
2022-11-18T01:11:36.126Z,115
2022-11-18T01:15:39.025Z,115
2022-11-18T01:17:40.813Z,115
2022-11-18T01:19:42.739Z,115
2022-11-18T01:21:44.013Z,115
2022-11-18T01:25:46.391Z,115
2022-11-18T01:27:47.798Z,115
2022-11-18T01:29:49.024Z,115
2022-11-18T01:32:17.237Z,115
2022-11-18T01:33:51.577Z,115
2022-11-18T01:35:52.646Z,115
2022-11-18T01:37:54.395Z,115
2022-11-18T01:39:55.276Z,115
2022-11-18T01:41:56.646Z,115
2022-11-18T01:43:58.425Z,115
2022-11-18T01:46:00.352Z,115
2022-11-18T01:48:01.872Z,115
2022-11-18T01:50:03.427Z,115
2022-11-18T01:52:04.953Z,115
2022-11-18T01:54:06.348Z,115
2022-11-18T01:58:09.101Z,115
2022-11-18T02:00:10.407Z,115
2022-11-18T02:04:12.958Z,120
2022-11-18T02:08:16.196Z,120
2022-11-18T02:10:17.548Z,120
2022-11-18T02:12:18.803Z,120
2022-11-18T02:14:20.512Z,120
2022-11-18T02:16:22.304Z,120
2022-11-18T02:18:23.901Z,120
2022-11-18T02:20:25.107Z,120
2022-11-18T02:22:26.733Z,120
2022-11-18T02:24:27.829Z,120
2022-11-18T02:26:29.175Z,120
2022-11-18T02:28:30.745Z,120
2022-11-18T02:30:32.600Z,120
2022-11-18T02:32:33.753Z,120
2022-11-18T02:34:35.102Z,120
2022-11-18T02:36:36.562Z,120
2022-11-18T02:40:39.629Z,120
2022-11-18T02:42:40.918Z,120
2022-11-18T02:44:42.166Z,120
2022-11-18T02:46:43.639Z,120
2022-11-18T02:50:47.121Z,120
2022-11-18T02:52:48.063Z,120
2022-11-18T02:56:51.662Z,120
2022-11-18T03:00:54.750Z,120
2022-11-18T03:02:56.218Z,120
2022-11-18T03:04:57.999Z,120
2022-11-18T03:05:41.848Z,120
2022-11-18T03:07:43.029Z,120
2022-11-18T03:11:45.266Z,120
2022-11-18T03:13:46.902Z,120
2022-11-18T03:15:48.531Z,120
2022-11-18T03:17:49.889Z,120
2022-11-18T03:23:54.027Z,120
2022-11-18T03:25:55.272Z,120
2022-11-18T03:27:56.450Z,120
2022-11-18T03:29:58.071Z,120
2022-11-18T03:34:01.582Z,120
2022-11-18T03:38:04.762Z,120
2022-11-18T03:40:05.992Z,120
2022-11-18T03:44:08.774Z,120
2022-11-18T03:46:09.952Z,120
2022-11-18T03:48:11.255Z,120
2022-11-18T03:50:12.340Z,120
2022-11-18T03:52:14.183Z,120
2022-11-18T03:54:15.789Z,120
2022-11-18T03:56:17.671Z,120
2022-11-18T03:58:18.268Z,120
2022-11-18T04:00:19.538Z,120
2022-11-18T04:02:20.432Z,120
2022-11-18T04:04:21.438Z,120
2022-11-18T04:06:22.514Z,120
2022-11-18T04:08:23.998Z,120
2022-11-18T04:10:25.468Z,120
2022-11-18T04:12:26.939Z,120
2022-11-18T04:16:30.184Z,120
2022-11-18T04:18:32.141Z,120
2022-11-18T04:22:34.182Z,120
2022-11-18T04:26:36.587Z,120
2022-11-18T04:28:38.460Z,120
2022-11-18T04:30:39.511Z,120
2022-11-18T04:32:40.808Z,120
2022-11-18T04:36:43.557Z,120
2022-11-18T04:38:44.714Z,120
2022-11-18T04:40:45.838Z,120
2022-11-18T04:42:47.237Z,120
2022-11-18T04:48:52.363Z,274
2022-11-18T04:50:53.429Z,274
2022-11-18T04:52:54.488Z,274
2022-11-18T04:54:55.647Z,274
2022-11-18T04:58:58.682Z,274
2022-11-18T05:00:59.873Z,274
2022-11-18T05:03:00.977Z,274
2022-11-18T05:05:02.491Z,275
2022-11-18T05:09:05.173Z,272
2022-11-18T05:11:06.671Z,272
2022-11-18T05:15:09.113Z,211
2022-11-18T05:19:12.698Z,212
2022-11-18T05:21:14.085Z,232
2022-11-18T05:25:16.939Z,273
2022-11-18T05:29:20.248Z,271
2022-11-18T05:31:21.311Z,271
2022-11-18T05:35:24.447Z,271
2022-11-18T05:37:25.878Z,271
2022-11-18T05:39:27.607Z,284
2022-11-18T05:41:29.102Z,284
2022-11-18T05:45:31.953Z,226
2022-11-18T05:47:33.747Z,230
2022-11-18T05:49:35.162Z,231
2022-11-18T05:51:36.712Z,267
2022-11-18T05:53:38.630Z,267
2022-11-18T05:57:41.543Z,204
2022-11-18T05:59:42.806Z,204
2022-11-18T06:01:44.718Z,204
2022-11-18T06:03:45.795Z,204
2022-11-18T06:07:48.604Z,204
2022-11-18T06:09:49.610Z,204
2022-11-18T06:11:51.329Z,204
2022-11-18T06:13:52.328Z,204
2022-11-18T06:15:53.569Z,214
2022-11-18T06:17:55.279Z,214
2022-11-18T06:19:56.717Z,214
2022-11-18T06:21:57.816Z,259
2022-11-18T06:23:59.309Z,279
2022-11-18T06:26:00.880Z,240
2022-11-18T06:28:02.752Z,300
2022-11-18T06:30:04.535Z,228
2022-11-18T06:32:05.925Z,240
2022-11-18T06:34:07.647Z,243
2022-11-18T06:36:09.533Z,238
2022-11-18T06:40:12.830Z,241
2022-11-18T06:42:13.871Z,236
2022-11-18T06:46:16.973Z,240
2022-11-18T06:50:20.254Z,239
2022-11-18T06:52:22.012Z,242
2022-11-18T06:54:23.279Z,264
2022-11-18T06:56:25.009Z,202
2022-11-18T06:58:26.183Z,269
2022-11-18T07:00:27.568Z,278
2022-11-18T07:02:28.670Z,233
2022-11-18T07:04:30.564Z,233
2022-11-18T07:06:31.699Z,214
2022-11-18T07:08:33.206Z,281
2022-11-18T07:10:34.861Z,281
2022-11-18T07:12:35.997Z,281
2022-11-18T07:14:37.633Z,281
2022-11-18T07:16:38.662Z,233
2022-11-18T07:18:40.038Z,235
2022-11-18T07:22:42.544Z,338
2022-11-18T07:24:44.122Z,249
2022-11-18T07:26:45.256Z,222
2022-11-18T07:28:47.012Z,267
2022-11-18T07:32:48.934Z,242
2022-11-18T07:34:50.586Z,232
2022-11-18T07:38:53.225Z,235
2022-11-18T07:42:56.178Z,243
2022-11-18T07:44:57.867Z,243
2022-11-18T07:49:01.348Z,255
2022-11-18T07:53:04.315Z,258
2022-11-18T07:55:06.124Z,270
2022-11-18T07:59:09.079Z,251
2022-11-18T08:01:10.293Z,248
2022-11-18T08:03:14.472Z,248
2022-11-18T08:05:17.611Z,248
2022-11-18T08:09:17.157Z,249
2022-11-18T08:11:22.139Z,249
2022-11-18T08:15:21.091Z,249
2022-11-18T08:17:22.101Z,249
2022-11-18T08:21:24.599Z,249
2022-11-18T08:25:27.779Z,235
2022-11-18T08:27:28.999Z,235
2022-11-18T08:31:32.509Z,235
2022-11-18T08:33:33.931Z,237
2022-11-18T08:35:35.229Z,237
2022-11-18T08:37:36.553Z,237
2022-11-18T08:39:37.543Z,239
2022-11-18T08:41:39.346Z,241
2022-11-18T08:43:40.451Z,240
2022-11-18T08:45:42.157Z,240
2022-11-18T08:47:44.049Z,240
2022-11-18T08:49:45.778Z,240
2022-11-18T08:51:46.943Z,240
2022-11-18T08:53:47.989Z,240
2022-11-18T08:55:53.027Z,263
2022-11-18T08:57:51.634Z,263
2022-11-18T08:59:53.348Z,263
2022-11-18T09:03:55.589Z,251
2022-11-18T09:05:57.352Z,242
2022-11-18T09:10:00.221Z,242
2022-11-18T09:15:06.077Z,232
2022-11-18T09:16:04.483Z,257
2022-11-18T09:18:05.832Z,271
2022-11-18T09:20:07.176Z,268
2022-11-18T09:24:10.098Z,230
2022-11-18T09:26:11.665Z,230
2022-11-18T09:28:13.472Z,196
2022-11-18T09:30:14.828Z,203
2022-11-18T09:34:17.503Z,244
2022-11-18T09:36:18.375Z,244
2022-11-18T09:38:19.553Z,244
2022-11-18T09:40:21.408Z,203
2022-11-18T09:42:22.997Z,360
2022-11-18T09:46:26.355Z,212
2022-11-18T09:48:27.620Z,212
2022-11-18T09:50:49.925Z,212
2022-11-18T09:53:14.106Z,212
2022-11-18T09:57:16.549Z,217
2022-11-18T10:01:19.279Z,216
2022-11-18T10:03:20.631Z,216
2022-11-18T10:07:23.903Z,216
2022-11-18T10:09:25.381Z,216
2022-11-18T10:11:27.042Z,216
2022-11-18T10:13:28.213Z,216
2022-11-18T10:17:31.066Z,216
2022-11-18T10:19:32.701Z,216
2022-11-18T10:21:34.024Z,216
2022-11-18T10:23:35.237Z,216
2022-11-18T10:29:39.469Z,216
2022-11-18T10:31:41.175Z,216
2022-11-18T10:33:42.687Z,216
2022-11-18T10:35:44.169Z,216
2022-11-18T10:39:47.242Z,216
2022-11-18T10:41:49.050Z,216
2022-11-18T10:43:50.898Z,216
2022-11-18T10:45:52.188Z,216
2022-11-18T10:49:55.056Z,217
2022-11-18T10:51:56.084Z,217
2022-11-18T10:55:59.530Z,216
2022-11-18T10:58:00.703Z,216
2022-11-18T11:00:02.700Z,216
2022-11-18T11:02:08.452Z,216
2022-11-18T11:04:05.502Z,216
2022-11-18T11:06:07.095Z,261
2022-11-18T11:10:10.032Z,261
2022-11-18T11:12:19.785Z,261
2022-11-18T11:16:14.958Z,261
2022-11-18T11:18:16.893Z,261
2022-11-18T11:22:19.527Z,262
2022-11-18T11:24:20.983Z,249
2022-11-18T11:28:24.015Z,250
2022-11-18T11:32:27.657Z,250
2022-11-18T11:34:28.980Z,250
2022-11-18T11:36:30.094Z,250
2022-11-18T11:38:31.170Z,250
2022-11-18T11:40:32.641Z,250
2022-11-18T11:42:34.319Z,250
2022-11-18T11:44:35.796Z,250
2022-11-18T11:46:37.036Z,250
2022-11-18T11:48:38.734Z,250
2022-11-18T11:50:55.918Z,200
2022-11-18T11:52:42.426Z,360
2022-11-18T11:54:43.415Z,300
2022-11-18T11:56:44.911Z,300
2022-11-18T11:58:45.983Z,300
2022-11-18T12:00:47.521Z,300
2022-11-18T12:04:50.960Z,300
2022-11-18T12:06:52.034Z,360
2022-11-18T12:10:54.615Z,360
2022-11-18T12:14:57.821Z,360
2022-11-18T12:16:59.425Z,360
2022-11-18T12:19:01.113Z,360
2022-11-18T12:21:03.009Z,360
2022-11-18T12:23:04.076Z,360
2022-11-18T12:25:05.748Z,360
2022-11-18T12:27:06.962Z,360
2022-11-18T12:31:10.732Z,360
2022-11-18T12:33:11.694Z,360
2022-11-18T12:35:13.325Z,360
2022-11-18T12:37:14.967Z,360
2022-11-18T12:39:16.597Z,360
2022-11-18T12:41:17.362Z,296
2022-11-18T12:43:18.671Z,295
2022-11-18T12:47:21.955Z,295
2022-11-18T12:49:23.654Z,262
2022-11-18T12:53:27.188Z,262
2022-11-18T12:57:30.392Z,262
2022-11-18T12:59:31.393Z,262
2022-11-18T13:01:32.702Z,262
2022-11-18T13:03:34.368Z,251
2022-11-18T13:07:37.243Z,251
2022-11-18T13:09:38.968Z,250
2022-11-18T13:11:40.693Z,250
2022-11-18T13:13:41.770Z,250
2022-11-18T13:15:43.418Z,250
2022-11-18T13:17:44.395Z,250
2022-11-18T13:19:46.072Z,250
2022-11-18T13:21:47.379Z,250
2022-11-18T13:23:48.905Z,250
2022-11-18T13:25:50.653Z,250
2022-11-18T13:29:54.307Z,250
2022-11-18T13:31:55.058Z,250
2022-11-18T13:33:56.707Z,337
2022-11-18T13:35:57.784Z,335
2022-11-18T13:40:00.217Z,335
2022-11-18T13:42:01.504Z,335
2022-11-18T13:44:02.529Z,313
2022-11-18T13:46:04.241Z,313
2022-11-18T13:50:06.429Z,268
2022-11-18T13:52:07.861Z,293
2022-11-18T13:54:08.902Z,293
2022-11-18T13:56:10.379Z,293
2022-11-18T14:00:12.747Z,293
2022-11-18T14:02:14.598Z,293
2022-11-18T14:06:17.934Z,291
2022-11-18T14:08:19.268Z,291
2022-11-18T14:10:20.587Z,291
2022-11-18T14:12:22.260Z,291
2022-11-18T14:16:24.901Z,290
2022-11-18T14:18:26.665Z,290
2022-11-18T14:22:29.621Z,288
2022-11-18T14:24:30.675Z,323
2022-11-18T14:28:33.345Z,240
2022-11-18T14:32:36.782Z,193
2022-11-18T14:34:37.909Z,193
2022-11-18T14:38:52.343Z,193
2022-11-18T14:42:43.246Z,174
2022-11-18T14:44:44.542Z,174
2022-11-18T14:46:45.740Z,174
2022-11-18T14:48:47.517Z,215
2022-11-18T14:50:49.183Z,215
2022-11-18T14:52:50.330Z,215
2022-11-18T14:54:51.440Z,215
2022-11-18T14:56:52.501Z,215
2022-11-18T14:58:53.888Z,215
2022-11-18T15:00:55.490Z,215
2022-11-18T15:02:56.826Z,215
2022-11-18T15:04:58.143Z,224
2022-11-18T15:06:59.306Z,224
2022-11-18T15:11:01.667Z,224
2022-11-18T15:13:03.316Z,224
2022-11-18T15:15:04.349Z,228
2022-11-18T15:17:06.218Z,228
2022-11-18T15:21:09.047Z,228
2022-11-18T15:23:10.294Z,228
2022-11-18T15:25:12.147Z,228
2022-11-18T15:27:13.299Z,228
2022-11-18T15:31:16.366Z,228
2022-11-18T15:33:17.557Z,228
2022-11-18T15:35:19.420Z,228
2022-11-18T15:37:20.705Z,228
2022-11-18T15:39:22.364Z,228
2022-11-18T15:41:24.271Z,228
2022-11-18T15:43:26.230Z,228
2022-11-18T15:45:27.476Z,228
2022-11-18T15:47:28.532Z,227
2022-11-18T15:49:29.622Z,227
2022-11-18T15:53:31.761Z,227
2022-11-18T15:55:33.360Z,228
2022-11-18T15:57:34.644Z,227
2022-11-18T15:59:36.027Z,227
2022-11-18T16:01:37.775Z,227
2022-11-18T16:03:38.677Z,227
2022-11-18T16:05:39.649Z,227
2022-11-18T16:07:41.455Z,227
2022-11-18T16:09:42.577Z,227
2022-11-18T16:11:43.634Z,227
2022-11-18T16:13:44.969Z,227
2022-11-18T16:15:46.139Z,227
2022-11-18T16:17:47.627Z,227
2022-11-18T16:19:49.572Z,227
2022-11-18T16:21:50.740Z,227
2022-11-18T16:25:53.305Z,227
2022-11-18T16:27:54.470Z,227
2022-11-18T16:29:56.249Z,227
2022-11-18T16:31:57.977Z,227
2022-11-18T16:36:01.285Z,323
2022-11-18T16:36:45.153Z,323
2022-11-18T16:38:46.966Z,324
2022-11-18T16:40:47.994Z,324
2022-11-18T16:42:49.645Z,319
2022-11-18T16:44:50.959Z,319
2022-11-18T16:46:52.353Z,319
2022-11-18T16:52:56.808Z,319
2022-11-18T16:54:57.985Z,319
2022-11-18T16:56:59.363Z,319
2022-11-18T16:59:00.702Z,318
2022-11-18T17:03:03.059Z,318
2022-11-18T17:05:04.761Z,318
2022-11-18T17:07:05.920Z,318
2022-11-18T17:09:07.582Z,318
2022-11-18T17:13:09.955Z,318
2022-11-18T17:15:11.327Z,318
2022-11-18T17:19:14.214Z,318
2022-11-18T17:23:17.573Z,318
2022-11-18T17:25:18.926Z,228
2022-11-18T17:29:22.263Z,243
2022-11-18T17:33:24.668Z,243
2022-11-18T17:35:26.398Z,243
2022-11-18T17:39:29.335Z,243
2022-11-18T17:41:30.485Z,243
2022-11-18T17:43:31.790Z,250
2022-11-18T17:45:33.345Z,360
2022-11-18T17:47:34.616Z,200
2022-11-18T17:49:36.133Z,200
2022-11-18T17:51:37.673Z,354
2022-11-18T17:53:42.687Z,360
2022-11-18T17:55:40.189Z,245
2022-11-18T17:57:41.421Z,273
2022-11-18T18:01:44.423Z,269
2022-11-18T18:03:45.364Z,239
2022-11-18T18:05:46.396Z,239
2022-11-18T18:07:47.995Z,240
2022-11-18T18:11:50.863Z,240
2022-11-18T18:13:52.635Z,240
2022-11-18T18:15:53.695Z,240
2022-11-18T18:17:54.726Z,240
2022-11-18T18:19:56.289Z,240
2022-11-18T18:21:58.002Z,240
2022-11-18T18:23:59.074Z,240
2022-11-18T18:26:00.272Z,240
2022-11-18T18:28:01.282Z,240
2022-11-18T18:30:02.792Z,240
2022-11-18T18:32:04.414Z,240
2022-11-18T18:34:05.495Z,240
2022-11-18T18:36:06.899Z,245
2022-11-18T18:38:07.937Z,245
2022-11-18T18:40:08.955Z,246
2022-11-18T18:44:17.006Z,246
2022-11-18T18:46:13.930Z,248
2022-11-18T18:48:15.444Z,257
2022-11-18T18:50:17.006Z,257
2022-11-18T18:54:20.718Z,275
2022-11-18T18:56:22.066Z,275
2022-11-18T19:00:25.420Z,275
2022-11-18T19:04:28.865Z,275
2022-11-18T19:06:49.033Z,275
2022-11-18T19:08:32.671Z,275
2022-11-18T19:10:33.756Z,275
2022-11-18T19:16:38.738Z,275
2022-11-18T19:18:39.767Z,275
2022-11-18T19:20:41.058Z,275
2022-11-18T19:22:42.599Z,275
2022-11-18T19:26:45.327Z,275
2022-11-18T19:28:46.878Z,275
2022-11-18T19:30:48.281Z,275
2022-11-18T19:32:49.378Z,275
2022-11-18T19:36:51.781Z,275
2022-11-18T19:38:53.437Z,275
2022-11-18T19:42:55.717Z,275
2022-11-18T19:46:59.363Z,275
2022-11-18T19:49:00.709Z,275
2022-11-18T19:53:03.974Z,275
2022-11-18T19:57:06.764Z,275
2022-11-18T19:59:08.239Z,275
2022-11-18T20:03:10.474Z,275
2022-11-18T20:05:12.092Z,275
2022-11-18T20:07:13.471Z,275
2022-11-18T20:09:14.963Z,275
2022-11-18T20:13:17.218Z,275
2022-11-18T20:15:18.590Z,275
2022-11-18T20:17:20.415Z,275
2022-11-18T20:19:22.607Z,275
2022-11-18T20:21:24.112Z,275
2022-11-18T20:25:27.144Z,275
2022-11-18T20:27:28.528Z,275
2022-11-18T20:29:30.423Z,275
2022-11-18T20:31:31.591Z,275
2022-11-18T20:35:34.996Z,275
2022-11-18T20:37:36.742Z,275
2022-11-18T20:39:38.273Z,275
2022-11-18T20:41:40.008Z,275
2022-11-18T20:43:41.055Z,275
2022-11-18T20:45:42.611Z,275
2022-11-18T20:47:44.169Z,275
2022-11-18T20:49:45.846Z,275
2022-11-18T20:51:46.937Z,275
2022-11-18T20:55:50.483Z,275
2022-11-18T20:57:52.029Z,275
2022-11-18T20:59:53.199Z,275
2022-11-18T21:01:54.838Z,275
2022-11-18T21:03:55.962Z,275
2022-11-18T21:07:59.257Z,275
2022-11-18T21:10:00.970Z,275
2022-11-18T21:12:02.750Z,275
2022-11-18T21:14:04.178Z,275
2022-11-18T21:18:06.936Z,275
2022-11-18T21:20:08.800Z,275
2022-11-18T21:22:09.912Z,275
2022-11-18T21:24:11.101Z,275
2022-11-18T21:26:13.498Z,275
2022-11-18T21:28:13.669Z,275
2022-11-18T21:30:14.886Z,275
2022-11-18T21:32:16.536Z,275
2022-11-18T21:34:17.658Z,275
2022-11-18T21:36:19.264Z,275
2022-11-18T21:38:20.909Z,275
2022-11-18T21:40:22.643Z,275
2022-11-18T21:42:24.102Z,275
2022-11-18T21:44:25.355Z,275
2022-11-18T21:46:26.303Z,275
2022-11-18T21:50:29.648Z,275
2022-11-18T21:52:30.995Z,275
2022-11-18T21:54:32.688Z,275
2022-11-18T21:56:34.462Z,275
2022-11-18T22:00:37.132Z,275
2022-11-18T22:02:38.251Z,275
2022-11-18T22:04:40.004Z,275
2022-11-18T22:06:41.029Z,275
2022-11-18T22:10:43.426Z,275
2022-11-18T22:12:45.191Z,275
2022-11-18T22:16:47.604Z,275
2022-11-18T22:20:51.237Z,275
2022-11-18T22:22:52.399Z,275
2022-11-18T22:24:53.449Z,275
2022-11-18T22:26:55.133Z,275
2022-11-18T22:28:56.805Z,275
2022-11-18T22:32:59.455Z,275
2022-11-18T22:35:01.089Z,275
2022-11-18T22:37:02.715Z,275
2022-11-18T22:39:03.744Z,275
2022-11-18T22:43:06.606Z,275
2022-11-18T22:45:08.236Z,275
2022-11-18T22:49:10.975Z,275
2022-11-18T22:53:13.872Z,276
2022-11-18T22:55:15.837Z,276
2022-11-18T22:57:17.073Z,276
2022-11-18T22:59:19.107Z,276
2022-11-18T23:03:21.883Z,276
2022-11-18T23:05:23.462Z,276
2022-11-18T23:09:25.975Z,276
2022-11-18T23:11:27.877Z,276
2022-11-18T23:13:29.252Z,276
2022-11-18T23:15:30.276Z,276
2022-11-18T23:21:34.409Z,277
2022-11-18T23:24:19.954Z,360
2022-11-18T23:26:21.547Z,100
2022-11-18T23:28:23.040Z,96
2022-11-18T23:30:24.038Z,96
2022-11-18T23:32:25.225Z,96
2022-11-18T23:36:27.488Z,118
2022-11-18T23:38:28.515Z,118
2022-11-18T23:40:29.667Z,118
2022-11-18T23:42:31.528Z,118
2022-11-18T23:44:33.101Z,101
2022-11-18T23:46:34.391Z,360
2022-11-18T23:48:35.568Z,360
2022-11-18T23:50:39.362Z,360
2022-11-18T23:52:39.335Z,101
2022-11-18T23:54:40.380Z,101
2022-11-18T23:56:42.172Z,105
2022-11-18T23:58:43.586Z,67
